Time;durP1;ratioP1;P1;durP2;ratioP2;P2;SDS_P1;SDS_P2;PMS_P1;PMS_P2;Temp;Humidity;BMP_temperature;BMP_pressure;BME280_temperature;BME280_humidity;BME280_pressure;Samples;Min_cycle;Max_cycle;Signal;HPM_P1;HPM_P2
2022/07/22 00:01:34;;;;;;;0.77;0.77;;;17.10;99.90;17.80;102014.00;;;;5054251;28;20247;-66
2022/07/22 00:04:20;;;;;;;0.90;0.90;;;17.00;99.90;17.70;102010.00;;;;5037889;28;20178;-66
2022/07/22 00:07:21;;;;;;;0.80;0.80;;;16.90;99.90;18.10;102002.00;;;;5054574;28;20178;-66
2022/07/22 00:10:10;;;;;;;0.80;0.80;;;17.00;99.90;18.10;102011.00;;;;5054257;28;20657;-66
2022/07/22 00:13:34;;;;;;;0.80;0.80;;;17.10;99.90;17.90;101984.00;;;;5054374;28;20655;-66
2022/07/22 00:16:25;;;;;;;0.90;0.90;;;17.20;99.90;17.70;101977.00;;;;5054349;28;20216;-66
2022/07/22 00:19:27;;;;;;;0.80;0.80;;;17.00;99.90;17.90;102023.00;;;;5055580;28;20265;-66
2022/07/22 00:22:13;;;;;;;0.80;0.80;;;16.90;99.90;18.00;102018.00;;;;5054022;28;20181;-67
2022/07/22 00:24:56;;;;;;;0.90;0.90;;;16.90;99.90;18.00;101976.00;;;;5053676;28;20197;-66
2022/07/22 00:27:57;;;;;;;0.80;0.80;;;17.00;99.90;17.40;102003.00;;;;5054141;28;20184;-66
2022/07/22 00:30:58;;;;;;;1.37;1.37;;;16.90;99.90;17.80;101982.00;;;;5054002;28;20206;-66
2022/07/22 00:34:05;;;;;;;0.70;0.70;;;16.80;99.90;17.70;102012.00;;;;5053865;28;20657;-66
2022/07/22 00:36:50;;;;;;;0.80;0.80;;;16.80;99.90;17.80;102016.00;;;;5049406;28;20178;-66
2022/07/22 00:39:54;;;;;;;0.80;0.80;;;16.80;99.90;17.80;101985.00;;;;5053942;28;20210;-66
2022/07/22 00:42:55;;;;;;;0.80;0.80;;;16.80;99.90;17.50;102010.00;;;;5053738;28;20190;-66
2022/07/22 00:45:55;;;;;;;0.80;0.80;;;16.70;99.90;17.60;101981.00;;;;5053696;28;20281;-66
2022/07/22 00:49:02;;;;;;;0.80;0.80;;;16.70;99.90;17.30;102017.00;;;;5053432;28;20176;-66
2022/07/22 00:52:05;;;;;;;0.80;0.80;;;16.70;99.90;17.60;102011.00;;;;5053877;28;20227;-66
2022/07/22 00:54:50;;;;;;;0.70;0.70;;;16.70;99.90;17.70;101979.00;;;;5019896;28;20182;-66
2022/07/22 00:57:39;;;;;;;0.80;0.80;;;16.70;99.90;17.90;102005.00;;;;5053574;28;20191;-66
2022/07/22 01:00:43;;;;;;;0.80;0.80;;;16.80;99.90;17.70;102009.00;;;;5051846;28;20171;-66
2022/07/22 01:03:29;;;;;;;0.83;0.83;;;16.80;99.90;17.80;101996.00;;;;5053140;28;20183;-66
2022/07/22 01:06:30;;;;;;;0.90;0.90;;;16.90;99.90;17.70;101998.00;;;;5054429;28;20707;-66
2022/07/22 01:09:34;;;;;;;0.80;0.80;;;16.80;99.90;17.70;101999.00;;;;5053318;28;20263;-66
2022/07/22 01:12:26;;;;;;;0.80;0.80;;;16.70;99.90;17.30;101979.00;;;;5052735;28;20221;-66
2022/07/22 01:15:10;;;;;;;0.80;0.80;;;16.70;99.90;17.80;101979.00;;;;5053184;28;20194;-66
2022/07/22 01:18:04;;;;;;;0.80;0.80;;;16.90;99.90;17.60;101996.00;;;;5052856;28;20229;-66
2022/07/22 01:20:50;;;;;;;0.80;0.80;;;16.70;99.90;18.00;101982.00;;;;5052995;28;20638;-66
2022/07/22 01:23:51;;;;;;;0.80;0.80;;;16.90;99.90;17.70;101988.00;;;;5053092;28;20269;-66
2022/07/22 01:26:55;;;;;;;0.80;0.80;;;17.00;99.90;18.10;101987.00;;;;5053100;28;20184;-66
2022/07/22 01:29:56;;;;;;;0.70;0.70;;;17.10;99.90;18.10;101982.00;;;;5019803;28;20193;-66
2022/07/22 01:32:39;;;;;;;0.70;0.70;;;17.20;99.90;18.00;101974.00;;;;5053797;28;20595;-66
2022/07/22 01:35:43;;;;;;;0.80;0.80;;;17.20;99.90;17.60;101924.00;;;;5052836;28;20272;-66
2022/07/22 01:38:32;;;;;;;0.90;0.90;;;17.00;99.90;17.90;101961.00;;;;5052938;28;20178;-66
2022/07/22 01:41:36;;;;;;;0.90;0.90;;;16.90;99.90;17.40;101966.00;;;;5052890;28;20575;-66
2022/07/22 01:44:22;;;;;;;0.80;0.80;;;16.80;99.90;17.60;101955.00;;;;5035733;28;20190;-66
2022/07/22 01:47:08;;;;;;;0.90;0.90;;;16.70;99.90;17.90;101968.00;;;;5052117;28;20175;-66
2022/07/22 01:50:00;;;;;;;0.90;0.90;;;16.90;99.90;17.80;101954.00;;;;5052856;28;20184;-66
2022/07/22 01:53:06;;;;;;;1.00;1.00;;;16.80;99.90;18.10;101954.00;;;;5053751;28;20198;-66
2022/07/22 01:55:53;;;;;;;0.73;0.73;;;17.00;99.90;18.00;101958.00;;;;5032948;28;20270;-66
2022/07/22 01:58:40;;;;;;;0.80;0.80;;;17.00;99.90;17.50;101911.00;;;;5052380;28;20176;-66
2022/07/22 02:01:27;;;;;;;0.80;0.80;;;16.80;99.90;17.40;101925.00;;;;5052301;28;20174;-66
2022/07/22 02:04:44;;;;;;;;;;;;;;;;;;;;;
2022/07/22 02:08:22;;;;;;;1.10;1.10;;;16.60;99.90;17.60;101952.00;;;;5030769;28;20425;-66
2022/07/22 02:11:33;;;;;;;0.70;0.70;;;16.60;99.90;17.70;101946.00;;;;4985118;28;20625;-66
2022/07/22 02:14:50;;;;;;;2.10;2.00;;;16.70;99.90;17.80;101935.00;;;;4999703;28;20210;-66
2022/07/22 02:18:21;;;;;;;0.70;0.70;;;16.70;99.90;17.60;101943.00;;;;5031990;28;20198;-66
2022/07/22 02:20:58;;;;;;;0.70;0.70;;;16.70;99.90;17.80;101940.00;;;;4972365;28;20194;-66
2022/07/22 02:27:26;;;;;;;1.00;1.00;;;16.80;99.90;17.20;101938.00;;;;4958845;28;20207;-66
2022/07/22 02:31:06;;;;;;;0.90;0.90;;;16.50;99.90;16.50;101938.00;;;;4955897;28;20193;-66
2022/07/22 02:34:06;;;;;;;0.80;0.80;;;16.00;99.90;16.50;101922.00;;;;4927327;28;20222;-66
2022/07/22 02:37:15;;;;;;;0.87;0.87;;;15.70;99.90;16.80;101945.00;;;;4975101;28;20268;-66
2022/07/22 02:39:53;;;;;;;0.90;0.90;;;15.70;99.90;16.50;101946.00;;;;4945833;28;20221;-66
2022/07/22 02:43:11;;;;;;;0.90;0.90;;;15.70;99.90;16.80;101953.00;;;;4959262;28;20233;-66
2022/07/22 02:50:13;;;;;;;0.97;0.97;;;15.60;99.90;16.50;101959.00;;;;5050228;28;20209;-66
2022/07/22 02:56:31;;;;;;;1.00;1.00;;;15.60;99.90;16.50;101955.00;;;;4972638;28;20293;-66
2022/07/22 03:03:01;;;;;;;1.00;1.00;;;15.70;99.90;16.80;101953.00;;;;5050643;28;20260;-66
2022/07/22 03:05:51;;;;;;;1.10;1.10;;;15.80;99.90;16.40;101944.00;;;;5050657;28;20232;-66
2022/07/22 03:08:41;;;;;;;0.97;0.97;;;15.70;99.90;15.70;101944.00;;;;5049937;28;20283;-66
2022/07/22 03:11:28;;;;;;;0.80;0.80;;;15.40;99.90;15.60;101955.00;;;;5050581;28;20203;-66
2022/07/22 03:14:19;;;;;;;0.93;0.93;;;15.00;99.90;16.40;101957.00;;;;5050337;28;20631;-66
2022/07/22 03:16:51;;;;;;;0.90;0.90;;;15.30;99.90;16.40;101923.00;;;;5014853;28;20559;-66
2022/07/22 03:20:01;;;;;;;0.90;0.90;;;15.40;99.90;16.50;101949.00;;;;5052892;28;20241;-66
2022/07/22 03:22:50;;;;;;;;;;;;;;;;;;;;;
2022/07/22 03:25:30;;;;;;;1.00;1.00;;;15.30;99.90;16.10;101954.00;;;;5039823;28;20195;-66
2022/07/22 03:28:27;;;;;;;1.00;1.00;;;15.20;99.90;16.40;101953.00;;;;5022598;28;20180;-66
2022/07/22 03:31:25;;;;;;;1.07;1.07;;;15.30;99.90;16.50;101958.00;;;;5038420;28;20180;-66
2022/07/22 03:34:42;;;;;;;1.00;1.00;;;15.40;99.90;16.40;101948.00;;;;5039240;28;20213;-66
2022/07/22 03:42:10;;;;;;;1.00;1.00;;;15.30;99.90;16.00;101938.00;;;;4967969;28;20200;-66
2022/07/22 03:45:06;;;;;;;1.00;1.00;;;15.10;99.90;16.10;101947.00;;;;4953247;28;20195;-66
2022/07/22 03:47:54;;;;;;;1.00;1.00;;;15.10;99.90;16.30;101938.00;;;;4943042;28;20249;-66
2022/07/22 03:50:49;;;;;;;1.00;1.00;;;15.20;99.90;16.30;101944.00;;;;4958302;28;20202;-66
2022/07/22 03:53:48;;;;;;;2.07;1.97;;;15.20;99.90;16.10;101959.00;;;;4958588;28;20223;-66
2022/07/22 03:57:14;;;;;;;0.90;0.90;;;15.20;99.90;15.90;101958.00;;;;4940591;28;20229;-66
2022/07/22 03:59:47;;;;;;;0.90;0.90;;;15.20;99.90;15.90;101952.00;;;;4946146;28;20216;-67
2022/07/22 04:02:59;;;;;;;0.90;0.90;;;15.00;99.90;16.00;101953.00;;;;5001951;28;20189;-66
2022/07/22 04:05:51;;;;;;;;;;;;;;;;;;;;;
2022/07/22 04:08:22;;;;;;;1.00;1.00;;;15.10;99.90;16.10;101916.00;;;;5006539;28;20197;-66
2022/07/22 04:10:56;;;;;;;0.90;0.90;;;15.20;99.90;15.90;101957.00;;;;5034008;28;20183;-66
2022/07/22 04:13:43;;;;;;;1.00;1.00;;;15.00;99.90;16.50;101948.00;;;;5034369;28;20308;-66
2022/07/22 04:16:59;;;;;;;0.90;0.90;;;15.30;99.90;16.50;101946.00;;;;5034058;28;20186;-66
2022/07/22 04:19:55;;;;;;;0.90;0.90;;;15.40;99.90;16.40;101907.00;;;;5000580;28;20191;-66
2022/07/22 04:27:28;;;;;;;1.07;1.07;;;15.40;99.90;16.50;101942.00;;;;4988964;28;20213;-66
2022/07/22 04:39:13;;;;;;;0.90;0.90;;;15.80;99.90;17.20;101938.00;;;;4893345;29;20549;-66
2022/07/22 04:43:00;;;;;;;0.90;0.90;;;15.90;99.90;17.00;101933.00;;;;4895817;29;20262;-66
2022/07/22 04:54:49;;;;;;;;;;;;;;;;;;;;;
2022/07/22 04:57:58;;;;;;;0.70;0.70;;;17.90;99.90;19.90;101916.00;;;;4966205;28;20204;-66
2022/07/22 05:01:50;;;;;;;0.70;0.70;;;18.70;99.90;20.70;101909.00;;;;4969434;28;20214;-66
2022/07/22 05:08:39;;;;;;;0.50;0.50;;;20.00;99.90;21.50;101870.00;;;;4954195;28;20295;-66
2022/07/22 05:11:21;;;;;;;0.40;0.40;;;20.30;99.90;22.10;101893.00;;;;5017916;28;20243;-66
2022/07/22 05:14:42;;;;;;;;;;;;;;;;;;;;;
2022/07/22 05:17:39;;;;;;;0.35;0.35;;;21.10;99.90;23.50;101937.00;;;;4958006;28;20300;-66
2022/07/22 05:20:35;;;;;;;0.20;0.20;;;21.80;99.90;24.40;101956.00;;;;4907331;29;20209;-67
2022/07/22 05:26:58;;;;;;;0.20;0.20;;;23.30;99.90;25.70;102010.00;;;;4959684;28;20199;-67
2022/07/22 05:29:52;;;;;;;0.50;0.50;;;23.90;99.90;26.60;102009.00;;;;4941637;28;20283;-67
2022/07/22 05:32:37;;;;;;;0.28;0.28;;;24.60;99.90;26.70;102032.00;;;;4941558;28;20217;-67
2022/07/22 05:35:27;;;;;;;0.30;0.30;;;24.90;99.90;26.00;102029.00;;;;4941334;28;20189;-67
2022/07/22 05:38:13;;;;;;;0.60;0.60;;;24.50;99.90;24.20;102018.00;;;;4941313;28;20183;-67
2022/07/22 05:41:11;;;;;;;0.20;0.20;;;23.40;99.90;24.10;102007.00;;;;5016519;28;20204;-66
2022/07/22 05:44:38;;;;;;;0.20;0.20;;;22.70;99.90;25.30;102030.00;;;;5016399;28;20187;-67
2022/07/22 05:47:27;;;;;;;0.10;0.10;;;23.20;99.90;26.60;102052.00;;;;5012893;28;20230;-67
2022/07/22 05:50:27;;;;;;;0.10;0.10;;;24.10;99.90;28.30;102066.00;;;;5016189;28;20203;-67
2022/07/22 05:53:21;;;;;;;0.10;0.10;;;25.70;99.90;29.50;102080.00;;;;5033853;28;20191;-67
2022/07/22 05:55:58;;;;;;;0.10;0.10;;;27.00;99.90;30.50;102076.00;;;;5030170;28;20739;-67
2022/07/22 05:58:30;;;;;;;0.10;0.10;;;28.00;99.90;31.10;102059.00;;;;5016671;28;20244;-67
2022/07/22 06:01:09;;;;;;;0.10;0.10;;;28.80;99.90;31.50;102062.00;;;;5016425;28;20198;-67
2022/07/22 06:03:55;;;;;;;0.10;0.10;;;29.20;99.90;31.10;102066.00;;;;5032340;28;20190;-67
2022/07/22 06:06:41;;;;;;;0.10;0.10;;;29.10;99.90;31.20;102074.00;;;;5032456;28;20223;-67
2022/07/22 06:09:28;;;;;;;0.10;0.10;;;29.10;99.90;31.10;102056.00;;;;5016043;28;20661;-67
2022/07/22 06:13:33;;;;;;;0.10;0.10;;;29.10;99.90;28.40;102070.00;;;;5032200;28;20240;-67
2022/07/22 06:16:07;;;;;;;0.10;0.10;;;27.10;99.90;27.80;102074.00;;;;5030382;28;20200;-67
2022/07/22 06:19:10;;;;;;;0.10;0.10;;;26.30;99.90;28.40;102058.00;;;;5015799;28;20652;-66
2022/07/22 06:21:55;;;;;;;0.10;0.10;;;26.20;99.90;28.70;102065.00;;;;5032022;28;20194;-67
2022/07/22 06:24:30;;;;;;;0.10;0.10;;;26.50;99.90;29.20;102084.00;;;;5031910;28;20217;-67
2022/07/22 06:27:21;;;;;;;0.10;0.10;;;26.90;99.90;29.10;102100.00;;;;5032463;28;20175;-67
2022/07/22 06:30:28;;;;;;;0.10;0.10;;;27.40;99.90;27.10;102098.00;;;;5032329;28;20296;-67
2022/07/22 06:33:14;;;;;;;0.17;0.17;;;26.40;99.90;29.30;102082.00;;;;5032087;28;20630;-67
2022/07/22 06:36:07;;;;;;;0.10;0.10;;;26.90;99.90;30.60;102102.00;;;;5015552;28;20307;-67
2022/07/22 06:38:53;;;;;;;0.10;0.10;;;28.20;99.90;31.10;102101.00;;;;5007997;28;20549;-67
2022/07/22 06:41:56;;;;;;;0.10;0.10;;;29.20;99.90;28.40;102114.00;;;;5017938;28;20670;-67
2022/07/22 06:45:04;;;;;;;0.10;0.10;;;28.30;99.90;23.20;102077.00;;;;4995174;28;20278;-67
2022/07/22 06:48:23;;;;;;;0.20;0.20;;;25.20;99.90;24.30;102085.00;;;;5012246;28;20587;-67
2022/07/22 06:51:27;;;;;;;0.10;0.10;;;23.80;99.90;25.30;102078.00;;;;5012377;28;20261;-67
2022/07/22 06:54:28;;;;;;;0.10;0.10;;;23.90;99.90;26.40;102090.00;;;;4997804;28;20194;-67
2022/07/22 06:57:31;;;;;;;0.10;0.10;;;24.40;99.90;25.30;102090.00;;;;5017369;28;20213;-67
2022/07/22 07:00:18;;;;;;;0.10;0.10;;;24.30;99.90;24.90;102074.00;;;;5017232;28;20167;-66
2022/07/22 07:03:37;;;;;;;0.10;0.10;;;24.20;99.90;25.40;102079.00;;;;5016075;28;20187;-67
2022/07/22 07:06:38;;;;;;;0.10;0.10;;;24.10;99.90;25.50;102054.00;;;;5015654;28;20175;-66
2022/07/22 07:09:59;;;;;;;0.10;0.10;;;24.00;99.90;26.30;102083.00;;;;5015798;28;20179;-66
2022/07/22 07:13:05;;;;;;;0.10;0.10;;;24.50;99.90;26.40;102085.00;;;;4999236;28;20190;-66
2022/07/22 07:16:24;;;;;;;0.55;0.55;;;24.70;99.90;26.50;102088.00;;;;5015721;28;20221;-66
2022/07/22 07:19:13;;;;;;;0.10;0.10;;;24.80;99.90;26.70;102088.00;;;;5015292;28;20167;-66
2022/07/22 07:22:13;;;;;;;0.10;0.10;;;24.70;99.90;25.00;102085.00;;;;4987434;28;20291;-66
2022/07/22 07:25:33;;;;;;;0.10;0.10;;;25.30;99.90;25.70;102070.00;;;;5016598;28;20188;-65
2022/07/22 07:28:55;;;;;;;0.10;0.10;;;24.00;99.90;25.90;102067.00;;;;5015662;28;20176;-65
2022/07/22 07:31:56;;;;;;;0.10;0.10;;;24.30;99.90;25.50;102072.00;;;;5016486;28;20207;-65
2022/07/22 07:35:06;;;;;;;0.10;0.10;;;24.20;99.90;24.30;102062.00;;;;5016323;28;20180;-66
2022/07/22 07:38:00;;;;;;;0.10;0.10;;;23.50;99.90;23.40;102046.00;;;;4999203;28;20180;-66
2022/07/22 07:40:51;;;;;;;0.10;0.10;;;23.10;99.90;23.10;102018.00;;;;5015162;28;20197;-65
2022/07/22 07:43:52;;;;;;;0.30;0.30;;;22.40;99.90;23.30;102016.00;;;;5016388;28;20670;-65
2022/07/22 07:46:45;;;;;;;1.30;1.23;;;21.90;99.90;23.30;102016.00;;;;5014993;28;20256;-65
2022/07/22 07:49:31;;;;;;;0.10;0.10;;;22.00;99.90;23.00;102026.00;;;;4998209;28;20199;-66
2022/07/22 07:52:17;;;;;;;0.10;0.10;;;22.00;99.90;20.60;101963.00;;;;5014433;28;20195;-65
2022/07/22 07:55:08;;;;;;;0.10;0.10;;;20.90;99.90;21.60;101950.00;;;;5015023;28;20206;-65
2022/07/22 07:58:32;;;;;;;0.63;0.63;;;20.50;99.90;22.20;101955.00;;;;5015018;28;20720;-65
2022/07/22 08:01:16;;;;;;;0.10;0.10;;;20.70;99.90;23.60;101990.00;;;;4998977;28;20195;-66
2022/07/22 08:04:17;;;;;;;0.10;0.10;;;21.80;99.90;23.90;102020.00;;;;4997861;28;20184;-66
2022/07/22 08:07:23;;;;;;;0.10;0.10;;;22.70;99.90;23.60;102034.00;;;;5014705;28;20525;-66
2022/07/22 08:10:42;;;;;;;0.10;0.10;;;23.10;99.90;23.30;102004.00;;;;4998438;28;20187;-65
2022/07/22 08:13:42;;;;;;;0.20;0.20;;;22.40;99.90;21.40;101988.00;;;;5016001;28;20196;-67
2022/07/22 08:16:25;;;;;;;0.45;0.45;;;21.90;99.90;21.50;101959.00;;;;4998164;28;20193;-66
2022/07/22 08:18:54;;;;;;;0.50;0.50;;;21.20;99.90;20.60;101937.00;;;;5014220;28;20227;-66
2022/07/22 08:21:41;;;;;;;0.65;0.65;;;20.70;99.90;22.30;101992.00;;;;4998370;28;20199;-68
2022/07/22 08:24:39;;;;;;;14.48;1.00;;;21.80;99.90;21.70;101983.00;;;;4998266;28;20605;-68
2022/07/22 08:27:58;;;;;;;0.17;0.17;;;21.80;99.90;24.40;102025.00;;;;4998331;28;20263;-68
2022/07/22 08:30:44;;;;;;;0.10;0.10;;;22.60;99.90;25.10;102036.00;;;;5014396;28;20267;-65
2022/07/22 08:33:45;;;;;;;0.15;0.15;;;23.70;99.90;24.80;102046.00;;;;4997912;28;20175;-66
2022/07/22 08:36:49;;;;;;;0.28;0.28;;;23.70;99.90;25.60;102055.00;;;;5021784;28;20186;-64
2022/07/22 08:39:34;;;;;;;0.25;0.25;;;24.10;99.90;24.80;102055.00;;;;5029510;28;20217;-64
2022/07/22 08:42:42;;;;;;;0.30;0.30;;;24.10;99.90;25.90;102063.00;;;;5011685;28;20210;-64
2022/07/22 08:45:46;;;;;;;0.35;0.35;;;24.30;99.90;26.20;102066.00;;;;5004774;28;20229;-65
2022/07/22 08:48:49;;;;;;;0.68;0.68;;;24.90;99.90;24.20;102066.00;;;;5017080;28;20214;-64
2022/07/22 08:51:56;;;;;;;0.10;0.10;;;24.20;99.90;24.00;102057.00;;;;5017324;28;20632;-65
2022/07/22 08:55:03;;;;;;;0.20;0.20;;;23.30;99.90;22.70;102040.00;;;;5004949;28;20190;-64
2022/07/22 08:58:06;;;;;;;0.45;0.43;;;22.90;99.90;23.70;102043.00;;;;5018988;28;20178;-64
2022/07/22 09:01:13;;;;;;;0.10;0.10;;;22.60;99.90;23.90;102040.00;;;;5021151;28;20200;-65
2022/07/22 09:03:49;;;;;;;0.10;0.10;;;22.80;99.90;24.10;102066.00;;;;5016673;28;20191;-64
2022/07/22 09:06:33;;;;;;;0.20;0.20;;;23.10;99.90;24.20;102051.00;;;;5016622;28;20313;-64
2022/07/22 09:09:32;;;;;;;0.20;0.20;;;23.10;99.90;23.50;102059.00;;;;5000486;28;20543;-64
2022/07/22 09:12:53;;;;;;;1.00;0.65;;;23.60;99.90;22.80;102034.00;;;;5012499;28;20182;-64
2022/07/22 09:16:05;;;;;;;0.10;0.10;;;22.40;99.90;22.80;102017.00;;;;5002681;28;20186;-63
2022/07/22 09:18:52;;;;;;;0.50;0.50;;;22.00;99.90;22.90;102025.00;;;;5016162;28;20226;-64
2022/07/22 09:21:43;;;;;;;0.20;0.20;;;22.40;99.90;23.10;102026.00;;;;4999296;28;20651;-63
2022/07/22 09:24:35;;;;;;;0.43;0.43;;;22.10;99.90;22.30;101996.00;;;;5016089;28;20210;-63
2022/07/22 09:27:27;;;;;;;0.10;0.10;;;21.80;99.90;23.20;102020.00;;;;5016880;28;20572;-64
2022/07/22 09:30:19;;;;;;;0.10;0.10;;;22.20;99.90;24.50;102034.00;;;;5016127;28;20626;-64
2022/07/22 09:33:08;;;;;;;0.40;0.40;;;22.70;99.90;24.90;102026.00;;;;5016695;28;20186;-66
2022/07/22 09:36:02;;;;;;;0.15;0.15;;;23.40;99.90;25.70;102053.00;;;;5001989;28;20179;-64
2022/07/22 09:38:57;;;;;;;0.20;0.20;;;24.50;99.90;24.50;102014.00;;;;4999762;28;20717;-64
2022/07/22 09:42:07;;;;;;;0.30;0.30;;;23.50;99.90;26.50;102056.00;;;;5002853;28;20179;-64
2022/07/22 09:45:12;;;;;;;0.10;0.10;;;24.60;99.90;26.80;102036.00;;;;5016146;28;20169;-64
2022/07/22 09:48:34;;;;;;;0.03;0.03;;;25.30;99.90;27.50;102055.00;;;;5015739;28;20598;-64
2022/07/22 09:51:55;;;;;;;0.10;0.10;;;26.00;99.90;29.10;102064.00;;;;5033868;28;20182;-65
2022/07/22 09:55:15;;;;;;;0.20;0.20;;;27.50;99.90;29.90;102063.00;;;;5016175;28;20182;-65
2022/07/22 09:58:16;;;;;;;0.70;0.70;;;28.50;99.90;26.40;102072.00;;;;4995764;28;20188;-65
2022/07/22 10:01:05;;;;;;;0.20;0.15;;;27.00;99.90;28.00;102066.00;;;;5012740;28;20281;-64
2022/07/22 10:03:54;;;;;;;0.10;0.10;;;26.70;99.90;26.20;102069.00;;;;5012561;28;20240;-65
2022/07/22 10:06:41;;;;;;;0.30;0.30;;;26.60;99.90;25.50;102063.00;;;;5012614;28;20172;-64
2022/07/22 10:09:28;;;;;;;0.10;0.10;;;25.40;99.90;27.50;102062.00;;;;5030500;28;20187;-64
2022/07/22 10:12:31;;;;;;;0.10;0.10;;;26.00;99.90;29.40;102046.00;;;;4999601;28;20630;-65
2022/07/22 10:15:21;;;;;;;0.20;0.20;;;27.10;99.90;28.30;102053.00;;;;5013955;28;20233;-64
2022/07/22 10:18:25;;;;;;;0.20;0.17;;;27.30;99.90;28.40;102060.00;;;;5020745;28;20721;-65
2022/07/22 10:33:51;;;;;;;0.10;0.10;;;24.60;99.90;25.00;102032.00;;;;5110593;27;1400070;-64
2022/07/22 10:36:37;;;;;;;0.10;0.10;;;24.40;99.90;26.60;102046.00;;;;5113138;28;20195;-64
2022/07/22 10:43:27;;;;;;;0.10;0.10;;;24.30;99.90;25.10;102028.00;;;;5131324;27;20196;-65
2022/07/22 10:46:24;;;;;;;0.10;0.10;;;24.40;99.90;26.10;102024.00;;;;5130186;28;20179;-64
2022/07/22 10:49:31;;;;;;;0.10;0.10;;;24.80;99.90;24.10;102009.00;;;;5112215;28;20211;-65
2022/07/22 10:53:17;;;;;;;0.55;0.55;;;24.70;99.90;24.40;102006.00;;;;5099909;28;20717;-63
2022/07/22 10:56:17;;;;;;;0.28;0.28;;;24.10;99.90;25.10;102000.00;;;;5023865;28;20196;-63
2022/07/22 10:59:12;;;;;;;0.52;0.52;;;23.80;99.90;25.70;102001.00;;;;5031398;28;20182;-63
2022/07/22 11:01:59;;;;;;;0.10;0.10;;;24.10;99.90;26.20;101998.00;;;;5030944;28;20231;-63
2022/07/22 11:05:06;;;;;;;0.10;0.10;;;24.60;99.90;27.00;101996.00;;;;5014647;28;20330;-64
2022/07/22 11:08:10;;;;;;;0.20;0.20;;;25.10;99.90;26.00;101988.00;;;;5028057;28;20362;-63
2022/07/22 11:11:15;;;;;;;0.20;0.20;;;24.70;99.90;26.30;101982.00;;;;5100929;28;20245;-61
2022/07/22 11:14:15;;;;;;;0.80;0.80;;;25.00;99.90;24.10;101959.00;;;;5109179;28;20195;-61
2022/07/22 11:17:36;;;;;;;0.40;0.40;;;24.10;99.90;24.20;101945.00;;;;5109093;28;20193;-61
2022/07/22 11:27:48;;;;;;;0.20;0.20;;;24.80;99.90;24.90;101935.00;;;;5091334;28;20200;-60
2022/07/22 11:30:35;;;;;;;6.63;2.20;;;24.40;99.90;24.70;101935.00;;;;5096097;28;20663;-60
2022/07/22 11:33:43;;;;;;;1.45;0.63;;;24.10;99.90;24.40;101937.00;;;;5093412;28;20223;-60
2022/07/22 11:41:06;;;;;;;0.10;0.10;;;23.90;99.90;24.90;101944.00;;;;5109404;28;20163;-61
2022/07/22 11:43:49;;;;;;;0.10;0.10;;;24.40;99.90;26.20;101953.00;;;;5092067;28;20200;-61
2022/07/22 11:47:04;;;;;;;5.20;2.25;;;24.70;99.90;25.90;101943.00;;;;5078133;28;20267;-61
2022/07/22 11:50:26;;;;;;;1.27;1.17;;;24.70;99.90;23.70;101928.00;;;;5077820;28;20185;-61
2022/07/22 11:53:30;;;;;;;3.55;3.22;;;23.90;99.90;24.80;101936.00;;;;5079363;28;20560;-61
2022/07/22 11:57:00;;;;;;;1.00;0.90;;;23.70;99.90;25.20;101924.00;;;;5062502;28;20211;-61
2022/07/22 12:00:08;;;;;;;6.07;1.33;;;23.70;99.90;24.60;101930.00;;;;5094695;28;20202;-61
2022/07/22 12:03:00;;;;;;;0.65;0.65;;;24.00;99.90;25.00;101933.00;;;;5080012;28;20540;-61
2022/07/22 12:05:45;;;;;;;1.83;1.73;;;23.90;99.90;24.40;101904.00;;;;5091228;28;20204;-61
2022/07/22 12:08:18;;;;;;;1.83;1.73;;;23.80;99.90;23.10;101891.00;;;;5076525;28;20322;-61
2022/07/22 12:15:15;;;;;;;1.08;0.70;;;23.20;99.90;23.90;101910.00;;;;5096215;28;20183;-61
2022/07/22 12:25:13;;;;;;;0.10;0.10;;;23.10;99.90;24.50;101929.00;;;;5115409;28;20186;-61
2022/07/22 12:28:15;;;;;;;0.28;0.28;;;23.30;99.90;26.20;101945.00;;;;5097024;28;20187;-61
2022/07/22 12:31:01;;;;;;;1.15;1.05;;;24.20;99.90;25.10;101944.00;;;;5096891;28;20191;-61
2022/07/22 12:33:50;;;;;;;0.13;0.13;;;24.60;99.90;25.00;101913.00;;;;5096728;28;20772;-61
2022/07/22 12:36:50;;;;;;;1.38;0.43;;;24.40;99.90;24.60;101942.00;;;;5105957;28;20236;-61
2022/07/22 12:39:25;;;;;;;0.30;0.30;;;23.70;99.90;24.80;101938.00;;;;5096322;28;20237;-61
2022/07/22 12:42:18;;;;;;;0.10;0.10;;;23.70;99.90;24.00;101931.00;;;;5096807;28;20194;-60
2022/07/22 12:45:36;;;;;;;0.32;0.32;;;23.40;99.90;25.40;101939.00;;;;5096453;28;20639;-61
2022/07/22 13:17:05;;;;;;;0.52;0.52;;;24.10;99.90;26.00;101931.00;;;;4997288;28;20219;-61
2022/07/22 13:19:49;;;;;;;1.25;0.50;;;24.70;99.90;25.10;101913.00;;;;4978794;28;20721;-61
2022/07/22 13:23:16;;;;;;;0.60;0.60;;;24.40;99.90;23.60;101901.00;;;;4997041;28;20191;-61
2022/07/22 13:26:14;;;;;;;;;;;;;;;;;;;;;
2022/07/22 13:28:48;;;;;;;0.35;0.35;;;23.60;99.90;24.20;101904.00;;;;5013115;28;20186;-61
2022/07/22 13:31:51;;;;;;;1.02;0.70;;;23.40;99.90;23.60;101899.00;;;;5012873;28;20306;-61
2022/07/22 13:34:22;;;;;;;0.40;0.40;;;23.20;99.90;24.30;101900.00;;;;5013079;28;20179;-61
2022/07/22 13:36:55;;;;;;;1.42;1.33;;;23.20;99.90;23.90;101891.00;;;;5012514;28;20559;-61
2022/07/22 13:39:41;;;;;;;0.43;0.40;;;23.30;99.90;24.10;101891.00;;;;4996787;28;20206;-61
2022/07/22 13:42:11;;;;;;;0.50;0.47;;;23.20;99.90;24.80;101905.00;;;;4997430;28;20210;-61
2022/07/22 13:45:09;;;;;;;0.10;0.10;;;23.40;99.90;24.40;101888.00;;;;4996606;28;20209;-62
2022/07/22 13:47:50;;;;;;;0.10;0.10;;;23.20;99.90;24.80;101877.00;;;;4996802;28;20250;-62
2022/07/22 13:51:04;;;;;;;1.55;1.45;;;23.70;99.90;25.80;101910.00;;;;4994991;28;20199;-62
2022/07/22 13:54:02;;;;;;;0.10;0.10;;;24.10;99.90;26.40;101908.00;;;;4988228;28;20188;-62
2022/07/22 13:57:04;;;;;;;0.20;0.20;;;24.60;99.90;24.80;101901.00;;;;5028208;28;20206;-62
2022/07/22 14:00:00;;;;;;;0.40;0.40;;;24.40;99.90;25.00;101888.00;;;;4995580;28;20198;-62
2022/07/22 14:02:41;;;;;;;1.83;1.13;;;23.90;99.90;24.00;101886.00;;;;5012217;28;20302;-62
2022/07/22 14:05:24;;;;;;;1.63;1.52;;;23.60;99.90;23.50;101876.00;;;;4995889;28;20637;-62
2022/07/22 14:08:00;;;;;;;2.42;0.77;;;23.10;99.90;24.40;101876.00;;;;4995900;28;20556;-62
2022/07/22 14:10:41;;;;;;;0.10;0.10;;;23.20;99.90;25.40;101885.00;;;;5012358;28;20191;-62
2022/07/22 14:13:21;;;;;;;0.10;0.10;;;23.70;99.90;24.80;101883.00;;;;4996407;28;20229;-62
2022/07/22 14:21:41;;;;;;;0.95;0.95;;;23.30;99.90;24.40;101850.00;;;;5051729;28;20196;-62
2022/07/22 14:24:32;;;;;;;0.10;0.10;;;23.50;99.90;25.10;101876.00;;;;5071219;28;20216;-62
2022/07/22 14:27:29;;;;;;;0.38;0.38;;;23.80;99.90;25.20;101875.00;;;;5039700;28;20205;-62
2022/07/22 14:30:28;;;;;;;0.35;0.35;;;24.10;99.90;25.80;101879.00;;;;5037883;28;20243;-62
2022/07/22 14:33:21;;;;;;;0.20;0.20;;;24.40;99.90;24.90;101861.00;;;;5044734;28;20214;-62
2022/07/22 14:36:22;;;;;;;3.90;3.80;;;24.20;99.90;24.00;101825.00;;;;5003308;28;20281;-62
2022/07/22 14:39:21;;;;;;;0.20;0.20;;;23.70;99.90;25.00;101813.00;;;;5035711;28;20165;-62
2022/07/22 14:42:12;;;;;;;0.68;0.68;;;23.80;99.90;25.00;101791.00;;;;5005984;28;20204;-62
2022/07/22 14:45:06;;;;;;;1.25;1.15;;;23.80;99.90;24.20;101806.00;;;;5035253;28;20263;-62
2022/07/22 14:48:16;;;;;;;;;;;;;;;;;;;;;
2022/07/22 14:51:27;;;;;;;0.30;0.30;;;23.50;99.90;24.00;101804.00;;;;5035955;28;20194;-62
2022/07/22 14:54:11;;;;;;;1.45;0.95;;;23.40;99.90;25.10;101825.00;;;;5034966;28;20194;-62
2022/07/22 14:57:25;;;;;;;1.75;1.65;;;23.70;99.90;24.00;101818.00;;;;5035613;28;20190;-62
2022/07/22 15:00:13;;;;;;;0.52;0.50;;;23.60;99.90;23.70;101813.00;;;;5022785;28;20198;-62
2022/07/22 15:03:03;;;;;;;0.45;0.40;;;23.20;99.90;23.50;101778.00;;;;5036955;28;20201;-62
2022/07/22 15:05:58;;;;;;;0.25;0.25;;;22.90;99.90;24.60;101818.00;;;;5032809;28;20207;-62
2022/07/22 15:08:59;;;;;;;0.40;0.40;;;23.20;99.90;25.50;101844.00;;;;5037076;28;20205;-60
2022/07/22 15:11:47;;;;;;;2.10;1.90;;;23.90;99.90;25.00;101850.00;;;;5055266;28;20686;-62
2022/07/22 15:14:34;;;;;;;0.30;0.30;;;24.00;99.90;25.10;101861.00;;;;5054414;28;20189;-62